Time;durP1;ratioP1;P1;durP2;ratioP2;P2;SDS_P1;SDS_P2;PMS_P1;PMS_P2;Temp;Humidity;BMP_temperature;BMP_pressure;BME280_temperature;BME280_humidity;BME280_pressure;Samples;Min_cycle;Max_cycle;Signal;HPM_P1;HPM_P2
2022/03/10 00:00:48;;;;;;;15.60;3.88;;;;;;;;;;5070905;28;20681;-68
2022/03/10 00:03:17;;;;;;;19.45;5.05;;;;;;;;;;5070579;28;20239;-69
2022/03/10 00:05:45;;;;;;;21.83;4.60;;;;;;;;;;5070975;28;20258;-68
2022/03/10 00:08:12;;;;;;;16.65;3.67;;;;;;;;;;5064046;28;20204;-68
2022/03/10 00:10:40;;;;;;;18.13;4.60;;;;;;;;;;5070844;28;20251;-68
2022/03/10 00:13:08;;;;;;;16.85;3.72;;;;;;;;;;5070518;28;20204;-68
2022/03/10 00:15:37;;;;;;;17.80;5.05;;;;;;;;;;5070539;28;20224;-68
2022/03/10 00:18:05;;;;;;;20.52;3.92;;;;;;;;;;5070630;28;20222;-68
2022/03/10 00:20:32;;;;;;;19.67;5.10;;;;;;;;;;5070665;28;20688;-68
2022/03/10 00:23:00;;;;;;;20.23;3.90;;;;;;;;;;5070400;28;20205;-68
2022/03/10 00:25:27;;;;;;;15.93;3.47;;;;;;;;;;5070623;28;20211;-67
2022/03/10 00:27:55;;;;;;;18.95;5.25;;;;;;;;;;5070607;28;20204;-67
2022/03/10 00:30:24;;;;;;;20.65;4.80;;;;;;;;;;5070667;28;20212;-67
2022/03/10 00:32:52;;;;;;;273.88;107.60;;;;;;;;;;5070494;28;20696;-67
2022/03/10 00:35:21;;;;;;;17.75;4.75;;;;;;;;;;5070253;28;20205;-68
2022/03/10 00:37:48;;;;;;;21.75;4.72;;;;;;;;;;5070386;28;20215;-68
2022/03/10 00:40:16;;;;;;;15.40;4.00;;;;;;;;;;5069606;28;20205;-68
2022/03/10 00:42:44;;;;;;;15.05;4.40;;;;;;;;;;5070406;28;20227;-68
2022/03/10 00:45:12;;;;;;;18.83;5.18;;;;;;;;;;5070360;28;20598;-68
2022/03/10 00:47:42;;;;;;;17.80;4.78;;;;;;;;;;5070322;28;20208;-68
2022/03/10 00:50:10;;;;;;;21.77;6.65;;;;;;;;;;5070583;28;20205;-68
2022/03/10 00:52:40;;;;;;;25.52;5.85;;;;;;;;;;5070423;28;20224;-68
2022/03/10 00:55:08;;;;;;;17.23;4.75;;;;;;;;;;5069977;28;20224;-69
2022/03/10 00:57:36;;;;;;;20.42;4.72;;;;;;;;;;5070370;28;20240;-68
2022/03/10 01:00:04;;;;;;;14.15;3.78;;;;;;;;;;5070331;28;20208;-68
2022/03/10 01:02:32;;;;;;;20.63;5.13;;;;;;;;;;5070540;28;20640;-67
2022/03/10 01:05:02;;;;;;;17.90;5.10;;;;;;;;;;5069753;28;20248;-68
2022/03/10 01:07:30;;;;;;;18.02;3.75;;;;;;;;;;5070094;28;20223;-68
2022/03/10 01:09:57;;;;;;;20.25;4.15;;;;;;;;;;5070153;28;20208;-68
2022/03/10 01:12:25;;;;;;;16.88;4.15;;;;;;;;;;5070165;28;20581;-68
2022/03/10 01:14:52;;;;;;;17.70;4.43;;;;;;;;;;5070364;28;20204;-67
2022/03/10 01:17:20;;;;;;;18.30;4.75;;;;;;;;;;5069844;28;20620;-68
2022/03/10 01:19:47;;;;;;;15.32;3.75;;;;;;;;;;5069994;28;20696;-68
2022/03/10 01:22:17;;;;;;;19.88;6.00;;;;;;;;;;5069966;28;20216;-68
2022/03/10 01:24:44;;;;;;;13.77;3.35;;;;;;;;;;5070216;28;20230;-68
2022/03/10 01:27:12;;;;;;;20.08;4.70;;;;;;;;;;5070018;28;20299;-67
2022/03/10 01:29:40;;;;;;;15.05;3.83;;;;;;;;;;5069934;28;20209;-68
2022/03/10 01:32:07;;;;;;;17.77;4.35;;;;;;;;;;5070328;28;20687;-68
2022/03/10 01:34:35;;;;;;;15.70;3.83;;;;;;;;;;5070046;28;20597;-67
2022/03/10 01:37:02;;;;;;;15.93;4.95;;;;;;;;;;5069685;28;20319;-67
2022/03/10 01:39:32;;;;;;;19.10;4.35;;;;;;;;;;5069828;28;20200;-68
2022/03/10 01:42:00;;;;;;;17.52;3.55;;;;;;;;;;5070088;28;20204;-68
2022/03/10 01:44:27;;;;;;;16.88;4.38;;;;;;;;;;5069772;28;20588;-68
2022/03/10 01:46:55;;;;;;;18.98;4.30;;;;;;;;;;5069810;28;20222;-67
2022/03/10 01:49:22;;;;;;;20.33;5.38;;;;;;;;;;5069463;28;20599;-67
2022/03/10 01:51:50;;;;;;;17.77;4.57;;;;;;;;;;5073179;28;20204;-68
2022/03/10 01:54:18;;;;;;;19.73;4.88;;;;;;;;;;5073788;28;20223;-68
2022/03/10 01:56:48;;;;;;;22.30;4.70;;;;;;;;;;5073509;28;20655;-68
2022/03/10 01:59:16;;;;;;;23.58;5.65;;;;;;;;;;5073123;28;20204;-68
2022/03/10 02:01:43;;;;;;;22.83;4.93;;;;;;;;;;5073197;28;20212;-68
2022/03/10 02:04:10;;;;;;;22.10;3.92;;;;;;;;;;5072904;28;20224;-68
2022/03/10 02:06:38;;;;;;;16.25;4.75;;;;;;;;;;5073406;28;20227;-69
2022/03/10 02:11:53;;;;;;;16.20;4.30;;;;;;;;;;5073269;28;20227;-67
2022/03/10 02:17:21;;;;;;;15.52;3.78;;;;;;;;;;5072843;28;20313;-68
2022/03/10 02:19:50;;;;;;;18.02;4.13;;;;;;;;;;5073236;28;20594;-68
2022/03/10 02:22:19;;;;;;;21.13;4.68;;;;;;;;;;5072925;28;20331;-68
2022/03/10 02:24:47;;;;;;;15.05;4.18;;;;;;;;;;5072935;28;20204;-68
2022/03/10 02:27:16;;;;;;;40.22;11.85;;;;;;;;;;5073003;28;20220;-68
2022/03/10 02:29:44;;;;;;;24.42;6.75;;;;;;;;;;5072693;28;20655;-68
2022/03/10 02:32:11;;;;;;;27.80;6.03;;;;;;;;;;5073023;28;20269;-67
2022/03/10 02:34:39;;;;;;;18.83;4.75;;;;;;;;;;5072706;28;20558;-68
2022/03/10 02:37:08;;;;;;;15.15;4.45;;;;;;;;;;5072209;28;20232;-68
2022/03/10 02:39:37;;;;;;;17.67;4.38;;;;;;;;;;5072811;28;20278;-68
2022/03/10 02:42:05;;;;;;;16.52;3.85;;;;;;;;;;5072591;28;20216;-68
2022/03/10 02:44:33;;;;;;;25.17;6.72;;;;;;;;;;5065875;28;20212;-67
2022/03/10 02:47:00;;;;;;;21.98;5.25;;;;;;;;;;5072172;28;20266;-68
2022/03/10 02:49:28;;;;;;;22.42;6.18;;;;;;;;;;5072633;28;20606;-68
2022/03/10 02:51:55;;;;;;;17.58;4.43;;;;;;;;;;5072516;28;20208;-68
2022/03/10 02:54:23;;;;;;;21.88;4.30;;;;;;;;;;5072475;28;20456;-67
2022/03/10 02:56:51;;;;;;;20.30;6.25;;;;;;;;;;5072371;28;20229;-68
2022/03/10 02:59:19;;;;;;;21.85;4.60;;;;;;;;;;5071997;28;21045;-67
2022/03/10 03:01:48;;;;;;;17.10;3.70;;;;;;;;;;5071435;28;20291;-69
2022/03/10 03:04:15;;;;;;;22.38;5.90;;;;;;;;;;5071725;28;20648;-68
2022/03/10 03:06:43;;;;;;;20.05;4.90;;;;;;;;;;5072094;28;20752;-68
2022/03/10 03:09:10;;;;;;;19.50;6.22;;;;;;;;;;5071740;28;20201;-68
2022/03/10 03:11:37;;;;;;;31.77;9.95;;;;;;;;;;5071899;28;20204;-68
2022/03/10 03:14:07;;;;;;;23.48;7.55;;;;;;;;;;5071929;28;20215;-68
2022/03/10 03:16:34;;;;;;;25.77;7.88;;;;;;;;;;5071767;28;20232;-68
2022/03/10 03:19:02;;;;;;;23.55;7.88;;;;;;;;;;5071496;28;20216;-67
2022/03/10 03:21:31;;;;;;;21.75;6.10;;;;;;;;;;5071743;28;20211;-68
2022/03/10 03:23:58;;;;;;;22.52;7.20;;;;;;;;;;5071714;28;20208;-68
2022/03/10 03:26:26;;;;;;;21.00;6.68;;;;;;;;;;5071693;28;20739;-68
2022/03/10 03:28:53;;;;;;;18.95;7.30;;;;;;;;;;5071620;28;20216;-68
2022/03/10 03:31:22;;;;;;;22.27;6.07;;;;;;;;;;5071268;28;20213;-68
2022/03/10 03:33:50;;;;;;;23.25;6.70;;;;;;;;;;5071702;28;20211;-68
2022/03/10 03:36:19;;;;;;;22.73;6.38;;;;;;;;;;5071384;28;20216;-67
2022/03/10 03:38:47;;;;;;;19.75;6.78;;;;;;;;;;5071372;28;20212;-67
2022/03/10 03:41:15;;;;;;;32.08;7.82;;;;;;;;;;5071136;28;20213;-68
2022/03/10 03:43:42;;;;;;;21.77;7.15;;;;;;;;;;5071305;28;20212;-68
2022/03/10 03:46:10;;;;;;;21.15;6.22;;;;;;;;;;5071497;28;20209;-68
2022/03/10 03:48:39;;;;;;;22.30;7.25;;;;;;;;;;5071233;28;20635;-68
2022/03/10 03:51:06;;;;;;;18.05;5.03;;;;;;;;;;5070926;28;20208;-68
2022/03/10 03:53:34;;;;;;;21.38;5.47;;;;;;;;;;5071204;28;20224;-69
2022/03/10 03:56:02;;;;;;;20.42;5.30;;;;;;;;;;5071093;28;20212;-67
2022/03/10 03:58:29;;;;;;;21.52;7.30;;;;;;;;;;5070945;28;20234;-68
2022/03/10 04:00:57;;;;;;;23.52;6.07;;;;;;;;;;5070918;28;20204;-68
2022/03/10 04:03:24;;;;;;;22.65;6.63;;;;;;;;;;5070864;28;20208;-68
2022/03/10 04:05:53;;;;;;;22.30;5.47;;;;;;;;;;5070815;28;20709;-68
2022/03/10 04:08:22;;;;;;;18.10;5.55;;;;;;;;;;5071057;28;20693;-67
2022/03/10 04:10:51;;;;;;;26.20;7.43;;;;;;;;;;5070705;28;20200;-68
2022/03/10 04:13:19;;;;;;;24.10;7.10;;;;;;;;;;5070440;28;20277;-68
2022/03/10 04:15:46;;;;;;;21.23;6.03;;;;;;;;;;5070969;28;20209;-68
2022/03/10 04:18:13;;;;;;;22.80;6.43;;;;;;;;;;5070602;28;20742;-68
2022/03/10 04:20:41;;;;;;;21.20;4.70;;;;;;;;;;5071062;28;20205;-67
2022/03/10 04:23:10;;;;;;;28.80;9.57;;;;;;;;;;5070475;28;20208;-68
2022/03/10 04:25:37;;;;;;;23.58;7.90;;;;;;;;;;5070619;28;20266;-68
2022/03/10 04:28:05;;;;;;;21.65;5.60;;;;;;;;;;5070566;28;20208;-67
2022/03/10 04:30:33;;;;;;;24.50;7.05;;;;;;;;;;5070624;28;20700;-67
2022/03/10 04:33:01;;;;;;;20.85;6.72;;;;;;;;;;5070502;28;20209;-67
2022/03/10 04:35:29;;;;;;;28.10;6.78;;;;;;;;;;5070614;28;20219;-68
2022/03/10 04:37:57;;;;;;;16.88;4.30;;;;;;;;;;5070351;28;20230;-68
2022/03/10 04:40:26;;;;;;;21.77;6.13;;;;;;;;;;5070416;28;20209;-68
2022/03/10 04:42:53;;;;;;;22.90;6.18;;;;;;;;;;5070386;28;20693;-68
2022/03/10 04:45:21;;;;;;;23.67;7.10;;;;;;;;;;5070514;28;20289;-68
2022/03/10 04:47:50;;;;;;;23.25;5.28;;;;;;;;;;5070519;28;20212;-67
2022/03/10 04:50:18;;;;;;;23.17;6.60;;;;;;;;;;5070508;28;20287;-68
2022/03/10 04:52:45;;;;;;;22.58;6.38;;;;;;;;;;5063807;28;20208;-67
2022/03/10 04:55:14;;;;;;;23.75;5.13;;;;;;;;;;5070326;28;20204;-67
2022/03/10 04:57:43;;;;;;;23.70;5.60;;;;;;;;;;5070451;28;20594;-68
2022/03/10 05:00:11;;;;;;;20.25;5.60;;;;;;;;;;5070188;28;20209;-67
2022/03/10 05:02:39;;;;;;;21.95;5.97;;;;;;;;;;5070356;28;20254;-68
2022/03/10 05:05:08;;;;;;;20.77;4.57;;;;;;;;;;5069839;28;20600;-68
2022/03/10 05:07:35;;;;;;;21.00;5.40;;;;;;;;;;5070214;28;20219;-68
2022/03/10 05:10:03;;;;;;;30.23;6.75;;;;;;;;;;5070337;28;20201;-67
2022/03/10 05:12:30;;;;;;;19.30;5.65;;;;;;;;;;5070311;28;20212;-68
2022/03/10 05:15:01;;;;;;;18.15;5.38;;;;;;;;;;5063839;28;20693;-68
2022/03/10 05:17:28;;;;;;;29.75;8.70;;;;;;;;;;5069955;28;20232;-69
2022/03/10 05:19:56;;;;;;;28.45;7.10;;;;;;;;;;5070129;28;20934;-68
2022/03/10 05:22:24;;;;;;;34.40;14.93;;;;;;;;;;5070186;28;20217;-68
2022/03/10 05:24:51;;;;;;;36.33;14.50;;;;;;;;;;5070432;28;20592;-68
2022/03/10 05:27:19;;;;;;;30.33;10.40;;;;;;;;;;5073851;28;20216;-68
2022/03/10 05:29:46;;;;;;;18.10;6.75;;;;;;;;;;5073900;28;20207;-68
2022/03/10 05:32:18;;;;;;;23.17;8.85;;;;;;;;;;5073709;28;20223;-68
2022/03/10 05:34:45;;;;;;;30.83;10.85;;;;;;;;;;5073897;28;20728;-68
2022/03/10 05:37:13;;;;;;;29.35;8.95;;;;;;;;;;5073438;28;20681;-67
2022/03/10 05:39:41;;;;;;;27.95;9.88;;;;;;;;;;5073723;28;20214;-68
2022/03/10 05:42:08;;;;;;;24.10;8.38;;;;;;;;;;5073619;28;20680;-68
2022/03/10 05:44:35;;;;;;;23.70;8.77;;;;;;;;;;5073538;28;20212;-68
2022/03/10 05:47:03;;;;;;;21.90;8.48;;;;;;;;;;5073222;28;20212;-68
2022/03/10 05:49:32;;;;;;;24.20;7.95;;;;;;;;;;5073759;28;20208;-67
2022/03/10 05:51:59;;;;;;;24.40;7.55;;;;;;;;;;5073554;28;20231;-68
2022/03/10 05:54:27;;;;;;;29.23;10.88;;;;;;;;;;5073391;28;20201;-68
2022/03/10 05:56:55;;;;;;;25.15;9.15;;;;;;;;;;5073455;28;20208;-66
2022/03/10 05:59:22;;;;;;;25.00;9.05;;;;;;;;;;5072983;28;20337;-68
2022/03/10 06:01:50;;;;;;;29.97;12.33;;;;;;;;;;5073237;28;20210;-68
2022/03/10 06:04:17;;;;;;;28.03;9.60;;;;;;;;;;5072946;28;20491;-68
2022/03/10 06:06:46;;;;;;;24.53;8.70;;;;;;;;;;5073174;28;20465;-68
2022/03/10 06:09:13;;;;;;;22.73;9.77;;;;;;;;;;5072919;28;20454;-68
2022/03/10 06:11:41;;;;;;;22.90;9.03;;;;;;;;;;5072976;28;20447;-69
2022/03/10 06:14:09;;;;;;;25.87;9.00;;;;;;;;;;5073005;28;20491;-69
2022/03/10 06:16:36;;;;;;;48.67;22.50;;;;;;;;;;5073009;28;20457;-69
2022/03/10 06:19:03;;;;;;;22.63;9.10;;;;;;;;;;5072962;28;20491;-69
2022/03/10 06:21:33;;;;;;;25.37;9.23;;;;;;;;;;5072982;28;20446;-69
2022/03/10 06:24:02;;;;;;;22.13;7.43;;;;;;;;;;5072819;28;20442;-68
2022/03/10 06:26:29;;;;;;;22.27;8.03;;;;;;;;;;5072682;28;20457;-69
2022/03/10 06:28:58;;;;;;;22.30;8.20;;;;;;;;;;5072981;28;20941;-69
2022/03/10 06:31:25;;;;;;;23.77;8.97;;;;;;;;;;5072644;28;20451;-69
2022/03/10 06:33:53;;;;;;;26.03;10.70;;;;;;;;;;5072808;28;20443;-68
2022/03/10 06:36:20;;;;;;;23.37;10.40;;;;;;;;;;5072546;28;20450;-68
2022/03/10 06:38:48;;;;;;;117.63;78.43;;;;;;;;;;5072542;28;20541;-69
2022/03/10 06:41:17;;;;;;;134.43;111.63;;;;;;;;;;5072618;28;20451;-69
2022/03/10 06:43:44;;;;;;;204.07;171.00;;;;;;;;;;5072619;28;20465;-69
2022/03/10 06:46:13;;;;;;;189.53;162.83;;;;;;;;;;5072487;28;20453;-68
2022/03/10 06:48:40;;;;;;;98.90;46.93;;;;;;;;;;5072372;28;20455;-68
2022/03/10 06:51:08;;;;;;;23.33;7.87;;;;;;;;;;5072181;28;20454;-68
2022/03/10 06:53:35;;;;;;;25.47;7.53;;;;;;;;;;5072213;28;20940;-68
2022/03/10 06:56:03;;;;;;;22.53;7.13;;;;;;;;;;5072477;28;20455;-68
2022/03/10 06:58:31;;;;;;;20.63;6.70;;;;;;;;;;5072127;28;20480;-68
2022/03/10 07:00:59;;;;;;;21.47;6.57;;;;;;;;;;5072193;28;20457;-69
2022/03/10 07:03:27;;;;;;;19.87;6.10;;;;;;;;;;5072008;28;20454;-68
2022/03/10 07:05:55;;;;;;;19.33;5.93;;;;;;;;;;5072240;28;20494;-69
2022/03/10 07:08:22;;;;;;;16.48;4.97;;;;;;;;;;5072276;28;20459;-68
2022/03/10 07:10:50;;;;;;;18.58;4.63;;;;;;;;;;5072214;28;20212;-68
2022/03/10 07:13:17;;;;;;;17.67;5.18;;;;;;;;;;5071808;28;20205;-69
2022/03/10 07:15:46;;;;;;;16.40;3.75;;;;;;;;;;5071883;28;20210;-69
2022/03/10 07:18:13;;;;;;;20.98;5.03;;;;;;;;;;5071821;28;20233;-68
2022/03/10 07:20:41;;;;;;;17.50;4.55;;;;;;;;;;5071719;28;20209;-68
2022/03/10 07:23:09;;;;;;;21.83;6.95;;;;;;;;;;5065014;28;20227;-68
2022/03/10 07:25:37;;;;;;;18.13;5.53;;;;;;;;;;5071980;28;20212;-69
2022/03/10 07:28:04;;;;;;;15.43;3.70;;;;;;;;;;5071769;28;20445;-69
2022/03/10 07:30:32;;;;;;;18.65;5.40;;;;;;;;;;5071921;28;20282;-68
2022/03/10 07:33:00;;;;;;;15.95;3.20;;;;;;;;;;5071225;28;20228;-69
2022/03/10 07:35:28;;;;;;;15.60;4.28;;;;;;;;;;5071433;28;20205;-68
2022/03/10 07:37:59;;;;;;;19.58;5.30;;;;;;;;;;5071600;28;20261;-68
2022/03/10 07:40:26;;;;;;;21.63;6.18;;;;;;;;;;5071692;28;20204;-68
2022/03/10 07:42:54;;;;;;;19.27;5.03;;;;;;;;;;5071502;28;20208;-68
2022/03/10 07:45:21;;;;;;;17.90;5.25;;;;;;;;;;5071115;28;20204;-71
2022/03/10 07:47:49;;;;;;;16.95;3.38;;;;;;;;;;5070661;28;20212;-70
2022/03/10 07:50:17;;;;;;;15.05;4.13;;;;;;;;;;5071501;28;20298;-68
2022/03/10 07:52:45;;;;;;;16.20;3.58;;;;;;;;;;5071112;28;20696;-68
2022/03/10 07:55:13;;;;;;;21.15;6.05;;;;;;;;;;5070902;28;20208;-68
2022/03/10 07:57:41;;;;;;;18.80;5.03;;;;;;;;;;5070953;28;20291;-68
2022/03/10 08:00:09;;;;;;;21.30;5.43;;;;;;;;;;5070924;28;20219;-68
2022/03/10 08:02:36;;;;;;;18.52;4.95;;;;;;;;;;5071237;28;20208;-68
2022/03/10 08:05:04;;;;;;;20.45;7.28;;;;;;;;;;5070401;28;20241;-70
2022/03/10 08:07:34;;;;;;;18.70;5.78;;;;;;;;;;5070846;28;20208;-68
2022/03/10 08:10:01;;;;;;;19.77;4.40;;;;;;;;;;5071042;28;20216;-68
2022/03/10 08:12:30;;;;;;;20.02;6.05;;;;;;;;;;5070910;28;20299;-69
2022/03/10 08:14:57;;;;;;;17.23;4.80;;;;;;;;;;5071156;28;20216;-69
2022/03/10 08:17:26;;;;;;;18.98;5.40;;;;;;;;;;5070924;28;20215;-68
2022/03/10 08:19:53;;;;;;;19.92;6.10;;;;;;;;;;5070810;28;20309;-68
2022/03/10 08:22:22;;;;;;;17.10;4.22;;;;;;;;;;5070676;28;20218;-68
2022/03/10 08:24:50;;;;;;;22.15;7.18;;;;;;;;;;5070675;28;20213;-68
2022/03/10 08:27:18;;;;;;;17.90;4.65;;;;;;;;;;5070450;28;20205;-69
2022/03/10 08:29:46;;;;;;;16.75;4.15;;;;;;;;;;5063982;28;20217;-68
2022/03/10 08:32:15;;;;;;;19.63;4.20;;;;;;;;;;5070591;28;20207;-68
2022/03/10 08:34:42;;;;;;;27.73;5.95;;;;;;;;;;5071119;28;20212;-68
2022/03/10 08:37:10;;;;;;;21.65;4.93;;;;;;;;;;5070398;28;20204;-68
2022/03/10 08:39:37;;;;;;;23.83;7.38;;;;;;;;;;5070323;28;20232;-68
2022/03/10 08:42:07;;;;;;;15.75;3.97;;;;;;;;;;5070702;28;20204;-68
2022/03/10 08:44:34;;;;;;;17.75;4.15;;;;;;;;;;5070440;28;20212;-68
2022/03/10 08:47:02;;;;;;;17.30;4.70;;;;;;;;;;5070354;28;20219;-68
2022/03/10 08:49:30;;;;;;;17.35;4.55;;;;;;;;;;5070586;28;20592;-68
2022/03/10 08:51:57;;;;;;;17.35;4.38;;;;;;;;;;5070319;28;20208;-68
2022/03/10 08:54:25;;;;;;;19.27;5.82;;;;;;;;;;5070393;28;20215;-69
2022/03/10 08:56:52;;;;;;;20.42;5.30;;;;;;;;;;5070712;28;20643;-68
2022/03/10 08:59:21;;;;;;;13.52;2.58;;;;;;;;;;5070391;28;20227;-68
2022/03/10 09:01:48;;;;;;;21.10;5.95;;;;;;;;;;5074013;28;20219;-68
2022/03/10 09:04:17;;;;;;;20.20;5.50;;;;;;;;;;5074288;28;20224;-68
2022/03/10 09:06:44;;;;;;;15.65;4.07;;;;;;;;;;5074378;28;20208;-68
2022/03/10 09:09:14;;;;;;;22.20;4.50;;;;;;;;;;5074145;28;20224;-68
2022/03/10 09:11:41;;;;;;;20.55;6.15;;;;;;;;;;5067864;28;20208;-68
2022/03/10 09:14:08;;;;;;;20.67;6.57;;;;;;;;;;5074405;28;20318;-68
2022/03/10 09:16:38;;;;;;;19.88;5.60;;;;;;;;;;5074335;28;20282;-68
2022/03/10 09:19:05;;;;;;;19.75;5.97;;;;;;;;;;5073959;28;20228;-68
2022/03/10 09:21:34;;;;;;;17.40;4.60;;;;;;;;;;5074052;28;20208;-68
2022/03/10 09:24:02;;;;;;;25.80;7.60;;;;;;;;;;5073999;28;20212;-68
2022/03/10 09:26:29;;;;;;;21.73;6.50;;;;;;;;;;5074130;28;20299;-69
2022/03/10 09:28:56;;;;;;;20.85;6.07;;;;;;;;;;5073945;28;20303;-68
2022/03/10 09:31:25;;;;;;;17.80;4.22;;;;;;;;;;5073871;28;20607;-69
2022/03/10 09:33:54;;;;;;;20.58;6.70;;;;;;;;;;5067168;28;20209;-68
2022/03/10 09:36:21;;;;;;;19.58;6.22;;;;;;;;;;5073797;28;20223;-68
2022/03/10 09:38:50;;;;;;;17.67;3.95;;;;;;;;;;5073683;28;20240;-68
2022/03/10 09:41:18;;;;;;;25.08;6.88;;;;;;;;;;5073793;28;20308;-68
2022/03/10 09:43:45;;;;;;;19.58;5.03;;;;;;;;;;5073697;28;20210;-68
2022/03/10 09:46:13;;;;;;;17.13;5.18;;;;;;;;;;5073679;28;20208;-68
2022/03/10 09:48:41;;;;;;;19.38;5.25;;;;;;;;;;5073640;28;20219;-69
2022/03/10 09:51:10;;;;;;;22.52;6.97;;;;;;;;;;5073245;28;20210;-69
2022/03/10 09:53:38;;;;;;;18.77;5.03;;;;;;;;;;5073515;28;20219;-68
2022/03/10 09:56:06;;;;;;;14.77;3.63;;;;;;;;;;5066751;28;20215;-69
2022/03/10 09:58:33;;;;;;;19.55;6.15;;;;;;;;;;5073328;28;20208;-68
2022/03/10 10:01:01;;;;;;;17.63;4.72;;;;;;;;;;5072994;28;20204;-68
2022/03/10 10:03:28;;;;;;;19.98;6.05;;;;;;;;;;5073255;28;20214;-68
2022/03/10 10:05:59;;;;;;;16.42;4.82;;;;;;;;;;5073290;28;20331;-68
2022/03/10 10:08:30;;;;;;;13.40;3.50;;;;;;;;;;5073398;28;20210;-69
2022/03/10 10:10:59;;;;;;;24.73;5.57;;;;;;;;;;5072975;28;20304;-68
2022/03/10 10:13:28;;;;;;;21.05;5.60;;;;;;;;;;5073045;28;20270;-69
2022/03/10 10:15:57;;;;;;;18.85;4.85;;;;;;;;;;5073051;28;20211;-68
2022/03/10 10:18:24;;;;;;;20.70;5.63;;;;;;;;;;5073224;28;20209;-68
2022/03/10 10:20:53;;;;;;;20.70;5.47;;;;;;;;;;5066323;28;20236;-68
2022/03/10 10:23:22;;;;;;;17.55;4.75;;;;;;;;;;5072732;28;20223;-68
2022/03/10 10:25:51;;;;;;;23.65;6.30;;;;;;;;;;5072835;28;20589;-69
2022/03/10 10:28:28;;;;;;;17.15;4.05;;;;;;;;;;5072905;28;20585;-69
2022/03/10 10:30:57;;;;;;;18.17;5.07;;;;;;;;;;5073122;28;20204;-69
2022/03/10 10:33:25;;;;;;;18.48;5.32;;;;;;;;;;5072753;28;20212;-69
2022/03/10 10:35:53;;;;;;;14.88;3.03;;;;;;;;;;5072824;28;20212;-68
2022/03/10 10:38:30;;;;;;;13.88;2.63;;;;;;;;;;5072811;28;20307;-68
2022/03/10 10:41:14;;;;;;;15.75;4.22;;;;;;;;;;5072707;28;20248;-68
2022/03/10 10:43:46;;;;;;;16.52;3.38;;;;;;;;;;5062713;28;20208;-68
2022/03/10 10:46:22;;;;;;;16.15;4.10;;;;;;;;;;5072702;28;20211;-68
2022/03/10 10:48:50;;;;;;;19.75;6.10;;;;;;;;;;5072396;28;20208;-69
2022/03/10 10:51:26;;;;;;;20.60;5.20;;;;;;;;;;5072232;28;20664;-68
2022/03/10 10:53:54;;;;;;;20.40;5.25;;;;;;;;;;5072935;28;20295;-68
2022/03/10 10:56:21;;;;;;;15.52;2.97;;;;;;;;;;5072694;28;20227;-68
2022/03/10 10:58:50;;;;;;;15.43;2.72;;;;;;;;;;5072291;28;20208;-68
2022/03/10 11:01:30;;;;;;;16.88;3.65;;;;;;;;;;5071913;28;20250;-68
2022/03/10 11:03:57;;;;;;;18.52;5.25;;;;;;;;;;5072396;28;20235;-69
2022/03/10 11:06:25;;;;;;;16.20;3.88;;;;;;;;;;5072093;28;20717;-68
2022/03/10 11:08:53;;;;;;;16.42;3.53;;;;;;;;;;5072120;28;20587;-68
2022/03/10 11:11:21;;;;;;;22.70;4.03;;;;;;;;;;5071932;28;20204;-68
2022/03/10 11:13:50;;;;;;;17.77;3.53;;;;;;;;;;5071892;28;20200;-68
2022/03/10 11:16:18;;;;;;;16.02;4.05;;;;;;;;;;5072295;28;20205;-69
2022/03/10 11:18:49;;;;;;;16.30;2.90;;;;;;;;;;5072117;28;20207;-68
2022/03/10 11:21:27;;;;;;;15.20;3.50;;;;;;;;;;5071846;28;20208;-68
2022/03/10 11:24:03;;;;;;;20.95;5.43;;;;;;;;;;5071107;28;20594;-68
2022/03/10 11:26:32;;;;;;;27.42;5.78;;;;;;;;;;5071673;28;20203;-68
2022/03/10 11:29:02;;;;;;;20.60;5.80;;;;;;;;;;5071643;28;20216;-69
2022/03/10 11:31:31;;;;;;;19.83;6.20;;;;;;;;;;5071867;28;20581;-68
2022/03/10 11:33:59;;;;;;;18.67;5.18;;;;;;;;;;5071630;28;20255;-68
2022/03/10 11:36:27;;;;;;;17.45;4.95;;;;;;;;;;5071493;28;20223;-68
2022/03/10 11:38:55;;;;;;;18.73;5.60;;;;;;;;;;5071529;28;20217;-68
2022/03/10 11:41:25;;;;;;;19.92;5.25;;;;;;;;;;5071164;28;20204;-68
2022/03/10 11:43:58;;;;;;;17.35;4.15;;;;;;;;;;5071642;28;20201;-69
2022/03/10 11:46:27;;;;;;;14.27;2.75;;;;;;;;;;5071455;28;20238;-68
2022/03/10 11:49:08;;;;;;;15.75;3.55;;;;;;;;;;5071529;28;20647;-68
2022/03/10 11:51:47;;;;;;;15.57;3.17;;;;;;;;;;5071302;28;20208;-68
2022/03/10 11:54:18;;;;;;;16.67;3.95;;;;;;;;;;5071294;28;20696;-69
2022/03/10 11:57:06;;;;;;;18.10;5.00;;;;;;;;;;5071340;28;20696;-68
2022/03/10 11:59:49;;;;;;;19.45;5.47;;;;;;;;;;5070996;28;20235;-68
2022/03/10 12:02:41;;;;;;;17.58;4.43;;;;;;;;;;5071342;28;20205;-69
2022/03/10 12:05:10;;;;;;;22.13;6.55;;;;;;;;;;5064408;28;20325;-69
2022/03/10 12:07:41;;;;;;;21.15;5.55;;;;;;;;;;5070931;28;20208;-69
2022/03/10 12:10:10;;;;;;;14.68;3.20;;;;;;;;;;5070921;28;20720;-69
2022/03/10 12:12:39;;;;;;;13.57;2.25;;;;;;;;;;5071256;28;20205;-68
2022/03/10 12:15:37;;;;;;;17.30;3.55;;;;;;;;;;5070818;28;20212;-68
2022/03/10 12:18:15;;;;;;;15.93;4.32;;;;;;;;;;5003367;28;20287;-70
2022/03/10 12:20:43;;;;;;;15.93;3.83;;;;;;;;;;5060747;28;20580;-68
2022/03/10 12:23:13;;;;;;;12.52;2.20;;;;;;;;;;5071019;28;20205;-69
2022/03/10 12:25:41;;;;;;;16.27;3.80;;;;;;;;;;5064440;28;20214;-69
2022/03/10 12:28:09;;;;;;;19.30;5.22;;;;;;;;;;5070713;28;20213;-69
2022/03/10 12:30:41;;;;;;;20.58;5.68;;;;;;;;;;5070702;28;20208;-69
2022/03/10 12:33:08;;;;;;;20.60;6.28;;;;;;;;;;5070417;28;20258;-68
2022/03/10 12:35:40;;;;;;;20.13;5.30;;;;;;;;;;5070875;28;20223;-69
2022/03/10 12:38:09;;;;;;;17.35;3.75;;;;;;;;;;5070800;28;20205;-69
2022/03/10 12:40:37;;;;;;;19.73;5.47;;;;;;;;;;5070609;28;20255;-68
2022/03/10 12:43:06;;;;;;;17.15;3.90;;;;;;;;;;5070244;28;20208;-68
2022/03/10 12:45:34;;;;;;;18.30;5.53;;;;;;;;;;5070526;28;20700;-68
2022/03/10 12:48:04;;;;;;;18.55;5.60;;;;;;;;;;5070624;28;20625;-68
2022/03/10 12:50:33;;;;;;;22.02;6.63;;;;;;;;;;5070636;28;20596;-68
2022/03/10 12:53:10;;;;;;;21.15;5.93;;;;;;;;;;5063803;28;20204;-68
2022/03/10 12:55:38;;;;;;;22.40;5.80;;;;;;;;;;5064458;28;20212;-68
2022/03/10 12:58:06;;;;;;;13.77;2.55;;;;;;;;;;5063504;28;20689;-68
2022/03/10 13:00:37;;;;;;;19.08;5.05;;;;;;;;;;5070845;28;20312;-68
2022/03/10 13:03:05;;;;;;;19.05;5.00;;;;;;;;;;5070104;28;20750;-69
2022/03/10 13:05:32;;;;;;;17.65;4.30;;;;;;;;;;5070094;28;20599;-68
2022/03/10 13:08:08;;;;;;;17.33;3.42;;;;;;;;;;5070237;28;20208;-68
2022/03/10 13:10:36;;;;;;;19.10;4.90;;;;;;;;;;5070169;28;20757;-68
2022/03/10 13:13:05;;;;;;;18.45;4.18;;;;;;;;;;5070110;28;20204;-68
2022/03/10 13:15:34;;;;;;;16.10;3.67;;;;;;;;;;5070345;28;20287;-69
2022/03/10 13:18:03;;;;;;;17.67;4.75;;;;;;;;;;5070020;28;20205;-68
2022/03/10 13:20:31;;;;;;;15.20;3.65;;;;;;;;;;5070037;28;20298;-69
2022/03/10 13:22:59;;;;;;;18.23;4.47;;;;;;;;;;5070221;28;20219;-69
2022/03/10 13:25:29;;;;;;;18.48;5.80;;;;;;;;;;5063324;28;20266;-69
2022/03/10 13:28:00;;;;;;;19.40;4.80;;;;;;;;;;5070038;28;20283;-69
2022/03/10 13:30:29;;;;;;;18.73;5.30;;;;;;;;;;5070067;28;20262;-68
2022/03/10 13:32:58;;;;;;;15.18;3.78;;;;;;;;;;5070269;28;20207;-69
2022/03/10 13:35:27;;;;;;;17.88;3.20;;;;;;;;;;5069906;28;20658;-69
2022/03/10 13:37:56;;;;;;;17.50;5.25;;;;;;;;;;5069939;28;20638;-68
2022/03/10 13:40:23;;;;;;;18.88;5.55;;;;;;;;;;5069979;28;20236;-68
2022/03/10 13:42:53;;;;;;;19.58;5.85;;;;;;;;;;5069835;28;20208;-69
2022/03/10 13:45:21;;;;;;;18.42;4.68;;;;;;;;;;5069573;28;20223;-68
2022/03/10 13:47:53;;;;;;;18.65;3.35;;;;;;;;;;5073213;28;20291;-69
2022/03/10 13:50:22;;;;;;;17.27;5.07;;;;;;;;;;5073970;28;20239;-68
2022/03/10 13:52:53;;;;;;;23.27;7.53;;;;;;;;;;5073580;28;20208;-68
2022/03/10 13:55:25;;;;;;;19.55;5.40;;;;;;;;;;5066683;28;20223;-69
2022/03/10 13:57:55;;;;;;;14.45;3.58;;;;;;;;;;5073521;28;20208;-69
2022/03/10 14:00:26;;;;;;;13.70;2.92;;;;;;;;;;5073185;28;20228;-68
2022/03/10 14:02:54;;;;;;;16.45;3.17;;;;;;;;;;5073307;28;20590;-68
2022/03/10 14:05:22;;;;;;;17.40;2.90;;;;;;;;;;5073040;28;20244;-68
2022/03/10 14:08:07;;;;;;;15.00;2.70;;;;;;;;;;5073271;28;20677;-69
2022/03/10 14:10:35;;;;;;;14.55;2.90;;;;;;;;;;5073128;28;20297;-68
2022/03/10 14:13:04;;;;;;;14.00;2.45;;;;;;;;;;5072866;28;20266;-68
2022/03/10 14:15:35;;;;;;;12.52;1.90;;;;;;;;;;5073337;28;20219;-68
2022/03/10 14:18:08;;;;;;;17.83;2.83;;;;;;;;;;5073015;28;20664;-69
2022/03/10 14:20:42;;;;;;;13.38;2.42;;;;;;;;;;5073152;28;20232;-68
2022/03/10 14:23:10;;;;;;;16.17;4.13;;;;;;;;;;5072845;28;20216;-68
2022/03/10 14:25:40;;;;;;;14.95;3.03;;;;;;;;;;5072844;28;20204;-68
2022/03/10 14:28:10;;;;;;;13.23;3.25;;;;;;;;;;5073259;28;20208;-69
2022/03/10 14:30:38;;;;;;;12.38;2.03;;;;;;;;;;5073259;28;20216;-68
2022/03/10 14:33:06;;;;;;;18.15;3.75;;;;;;;;;;5072668;28;20211;-69
2022/03/10 14:35:33;;;;;;;13.07;2.63;;;;;;;;;;5072914;28;20212;-68
2022/03/10 14:38:01;;;;;;;15.15;3.20;;;;;;;;;;5072730;28;20208;-68
2022/03/10 14:40:28;;;;;;;17.60;3.30;;;;;;;;;;5072958;28;20228;-69
2022/03/10 14:42:56;;;;;;;16.63;3.25;;;;;;;;;;5072613;28;20619;-68